sensor_id;sensor_type;location;lat;lon;timestamp;temperature;humidity
13896;DHT22;7018;50.838;4.226;2022-07-29T00:02:07;18.80;99.90
13896;DHT22;7018;50.838;4.226;2022-07-29T00:04:34;18.70;99.90
13896;DHT22;7018;50.838;4.226;2022-07-29T00:07:03;18.70;99.90
13896;DHT22;7018;50.838;4.226;2022-07-29T00:09:31;18.60;99.90
13896;DHT22;7018;50.838;4.226;2022-07-29T00:12:00;18.60;99.90
13896;DHT22;7018;50.838;4.226;2022-07-29T00:14:27;18.70;99.90
13896;DHT22;7018;50.838;4.226;2022-07-29T00:16:55;18.70;99.90
13896;DHT22;7018;50.838;4.226;2022-07-29T00:19:22;18.70;99.90
13896;DHT22;7018;50.838;4.226;2022-07-29T00:21:49;18.60;99.90
13896;DHT22;7018;50.838;4.226;2022-07-29T00:24:16;18.60;99.90
13896;DHT22;7018;50.838;4.226;2022-07-29T00:26:44;18.60;99.90
13896;DHT22;7018;50.838;4.226;2022-07-29T00:29:11;18.60;99.90
13896;DHT22;7018;50.838;4.226;2022-07-29T00:31:59;18.50;99.90
13896;DHT22;7018;50.838;4.226;2022-07-29T00:34:27;18.50;99.90
13896;DHT22;7018;50.838;4.226;2022-07-29T00:37:12;18.50;99.90
13896;DHT22;7018;50.838;4.226;2022-07-29T00:39:39;18.50;99.90
13896;DHT22;7018;50.838;4.226;2022-07-29T00:42:07;18.50;99.90
13896;DHT22;7018;50.838;4.226;2022-07-29T00:44:38;18.50;99.90
13896;DHT22;7018;50.838;4.226;2022-07-29T00:47:06;18.40;99.90
13896;DHT22;7018;50.838;4.226;2022-07-29T00:49:33;18.30;99.90
13896;DHT22;7018;50.838;4.226;2022-07-29T00:52:02;18.20;99.90
13896;DHT22;7018;50.838;4.226;2022-07-29T00:54:29;18.20;99.90
13896;DHT22;7018;50.838;4.226;2022-07-29T00:56:59;18.30;99.90
13896;DHT22;7018;50.838;4.226;2022-07-29T00:59:27;18.20;99.90
13896;DHT22;7018;50.838;4.226;2022-07-29T01:01:54;18.20;99.90
13896;DHT22;7018;50.838;4.226;2022-07-29T01:04:21;18.10;99.90
13896;DHT22;7018;50.838;4.226;2022-07-29T01:06:48;18.10;99.90
13896;DHT22;7018;50.838;4.226;2022-07-29T01:09:16;18.10;99.90
13896;DHT22;7018;50.838;4.226;2022-07-29T01:11:45;18.10;99.90
13896;DHT22;7018;50.838;4.226;2022-07-29T01:14:14;18.10;99.90
13896;DHT22;7018;50.838;4.226;2022-07-29T01:16:43;18.10;99.90
13896;DHT22;7018;50.838;4.226;2022-07-29T01:19:20;18.00;99.90
13896;DHT22;7018;50.838;4.226;2022-07-29T01:21:51;18.00;99.90
13896;DHT22;7018;50.838;4.226;2022-07-29T01:24:28;18.00;99.90
13896;DHT22;7018;50.838;4.226;2022-07-29T01:26:57;18.00;99.90
13896;DHT22;7018;50.838;4.226;2022-07-29T01:29:30;17.90;99.90
13896;DHT22;7018;50.838;4.226;2022-07-29T01:32:01;17.80;99.90
13896;DHT22;7018;50.838;4.226;2022-07-29T01:34:47;17.80;99.90
13896;DHT22;7018;50.838;4.226;2022-07-29T01:39:46;17.70;99.90
13896;DHT22;7018;50.838;4.226;2022-07-29T01:42:20;17.60;99.90
13896;DHT22;7018;50.838;4.226;2022-07-29T01:44:54;17.60;99.90
13896;DHT22;7018;50.838;4.226;2022-07-29T01:47:23;17.60;99.90
13896;DHT22;7018;50.838;4.226;2022-07-29T01:49:52;17.60;99.90
13896;DHT22;7018;50.838;4.226;2022-07-29T01:52:26;17.50;99.90
13896;DHT22;7018;50.838;4.226;2022-07-29T01:54:58;17.50;99.90
13896;DHT22;7018;50.838;4.226;2022-07-29T01:57:27;17.40;99.90
13896;DHT22;7018;50.838;4.226;2022-07-29T01:59:56;17.40;99.90
13896;DHT22;7018;50.838;4.226;2022-07-29T02:02:24;17.30;99.90
13896;DHT22;7018;50.838;4.226;2022-07-29T02:04:51;17.30;99.90
13896;DHT22;7018;50.838;4.226;2022-07-29T02:07:19;17.30;99.90
13896;DHT22;7018;50.838;4.226;2022-07-29T02:09:49;17.30;99.90
13896;DHT22;7018;50.838;4.226;2022-07-29T02:12:17;17.30;99.90
13896;DHT22;7018;50.838;4.226;2022-07-29T02:14:47;17.30;99.90
13896;DHT22;7018;50.838;4.226;2022-07-29T02:17:18;17.20;99.90
13896;DHT22;7018;50.838;4.226;2022-07-29T02:19:48;17.10;99.90
13896;DHT22;7018;50.838;4.226;2022-07-29T02:22:16;17.10;99.90
13896;DHT22;7018;50.838;4.226;2022-07-29T02:24:43;17.10;99.90
13896;DHT22;7018;50.838;4.226;2022-07-29T02:27:11;17.10;99.90
13896;DHT22;7018;50.838;4.226;2022-07-29T02:29:39;17.10;99.90
13896;DHT22;7018;50.838;4.226;2022-07-29T02:32:06;17.10;99.90
13896;DHT22;7018;50.838;4.226;2022-07-29T02:34:37;17.10;99.90
13896;DHT22;7018;50.838;4.226;2022-07-29T02:37:05;17.10;99.90
13896;DHT22;7018;50.838;4.226;2022-07-29T02:39:34;17.10;99.90
13896;DHT22;7018;50.838;4.226;2022-07-29T02:42:03;17.10;99.90
13896;DHT22;7018;50.838;4.226;2022-07-29T02:44:31;17.10;99.90
13896;DHT22;7018;50.838;4.226;2022-07-29T02:52:06;17.10;99.90
13896;DHT22;7018;50.838;4.226;2022-07-29T02:57:01;17.00;99.90
13896;DHT22;7018;50.838;4.226;2022-07-29T02:59:32;16.90;99.90
13896;DHT22;7018;50.838;4.226;2022-07-29T03:02:00;16.80;99.90
13896;DHT22;7018;50.838;4.226;2022-07-29T03:04:29;16.80;99.90
13896;DHT22;7018;50.838;4.226;2022-07-29T03:06:58;16.80;99.90
13896;DHT22;7018;50.838;4.226;2022-07-29T03:09:26;16.70;99.90
13896;DHT22;7018;50.838;4.226;2022-07-29T03:11:54;16.80;99.90
13896;DHT22;7018;50.838;4.226;2022-07-29T03:14:22;16.80;99.90
13896;DHT22;7018;50.838;4.226;2022-07-29T03:16:50;16.80;99.90
13896;DHT22;7018;50.838;4.226;2022-07-29T03:19:18;16.70;99.90
13896;DHT22;7018;50.838;4.226;2022-07-29T03:21:47;16.60;99.90
13896;DHT22;7018;50.838;4.226;2022-07-29T03:24:24;16.70;99.90
13896;DHT22;7018;50.838;4.226;2022-07-29T03:26:51;16.60;99.90
13896;DHT22;7018;50.838;4.226;2022-07-29T03:29:19;16.60;99.90
13896;DHT22;7018;50.838;4.226;2022-07-29T03:31:47;16.60;99.90
13896;DHT22;7018;50.838;4.226;2022-07-29T03:34:14;16.40;99.90
13896;DHT22;7018;50.838;4.226;2022-07-29T03:36:42;16.30;99.90
13896;DHT22;7018;50.838;4.226;2022-07-29T03:39:09;16.40;99.90
13896;DHT22;7018;50.838;4.226;2022-07-29T03:41:38;16.40;99.90
13896;DHT22;7018;50.838;4.226;2022-07-29T03:44:05;16.30;99.90
13896;DHT22;7018;50.838;4.226;2022-07-29T03:46:34;16.10;99.90
13896;DHT22;7018;50.838;4.226;2022-07-29T03:49:03;16.20;99.90
13896;DHT22;7018;50.838;4.226;2022-07-29T03:51:31;16.00;99.90
13896;DHT22;7018;50.838;4.226;2022-07-29T03:53:58;15.90;99.90
13896;DHT22;7018;50.838;4.226;2022-07-29T03:56:25;15.90;99.90
13896;DHT22;7018;50.838;4.226;2022-07-29T03:58:54;16.00;99.90
13896;DHT22;7018;50.838;4.226;2022-07-29T04:01:22;16.00;99.90
13896;DHT22;7018;50.838;4.226;2022-07-29T04:03:50;15.90;99.90
13896;DHT22;7018;50.838;4.226;2022-07-29T04:06:18;15.80;99.90
13896;DHT22;7018;50.838;4.226;2022-07-29T04:08:45;15.80;99.90
13896;DHT22;7018;50.838;4.226;2022-07-29T04:11:12;15.70;99.90
13896;DHT22;7018;50.838;4.226;2022-07-29T04:13:40;15.70;99.90
13896;DHT22;7018;50.838;4.226;2022-07-29T04:16:07;15.80;99.90
13896;DHT22;7018;50.838;4.226;2022-07-29T04:18:35;15.90;99.90
13896;DHT22;7018;50.838;4.226;2022-07-29T04:21:02;16.00;99.90
13896;DHT22;7018;50.838;4.226;2022-07-29T04:23:30;15.90;99.90
13896;DHT22;7018;50.838;4.226;2022-07-29T04:26:01;16.00;99.90
13896;DHT22;7018;50.838;4.226;2022-07-29T04:28:28;16.00;99.90
13896;DHT22;7018;50.838;4.226;2022-07-29T04:30:56;16.00;99.90
13896;DHT22;7018;50.838;4.226;2022-07-29T04:33:23;16.00;99.90
13896;DHT22;7018;50.838;4.226;2022-07-29T04:36:04;16.00;99.90
13896;DHT22;7018;50.838;4.226;2022-07-29T04:38:31;15.90;99.90
13896;DHT22;7018;50.838;4.226;2022-07-29T04:40:58;15.90;99.90
13896;DHT22;7018;50.838;4.226;2022-07-29T04:43:26;15.90;99.90
13896;DHT22;7018;50.838;4.226;2022-07-29T04:45:53;15.90;99.90
13896;DHT22;7018;50.838;4.226;2022-07-29T04:48:21;16.00;99.90
13896;DHT22;7018;50.838;4.226;2022-07-29T04:50:53;16.00;99.90
13896;DHT22;7018;50.838;4.226;2022-07-29T04:53:51;16.00;99.90
13896;DHT22;7018;50.838;4.226;2022-07-29T04:56:32;16.10;99.90
13896;DHT22;7018;50.838;4.226;2022-07-29T04:59:00;16.20;99.90
13896;DHT22;7018;50.838;4.226;2022-07-29T05:01:27;16.10;99.90
13896;DHT22;7018;50.838;4.226;2022-07-29T05:03:54;16.10;99.90
13896;DHT22;7018;50.838;4.226;2022-07-29T05:06:25;16.10;99.90
13896;DHT22;7018;50.838;4.226;2022-07-29T05:08:52;16.10;99.90
13896;DHT22;7018;50.838;4.226;2022-07-29T05:11:20;16.20;99.90
13896;DHT22;7018;50.838;4.226;2022-07-29T05:13:48;16.20;99.90
13896;DHT22;7018;50.838;4.226;2022-07-29T05:16:16;16.30;99.90
13896;DHT22;7018;50.838;4.226;2022-07-29T05:18:43;16.30;99.90
13896;DHT22;7018;50.838;4.226;2022-07-29T05:21:10;16.30;99.90
13896;DHT22;7018;50.838;4.226;2022-07-29T05:23:38;16.50;99.90
13896;DHT22;7018;50.838;4.226;2022-07-29T05:26:05;16.60;99.90
13896;DHT22;7018;50.838;4.226;2022-07-29T05:28:33;16.70;99.90
13896;DHT22;7018;50.838;4.226;2022-07-29T05:31:01;16.80;99.90
13896;DHT22;7018;50.838;4.226;2022-07-29T05:33:29;16.80;99.90
13896;DHT22;7018;50.838;4.226;2022-07-29T05:35:57;16.90;99.90
13896;DHT22;7018;50.838;4.226;2022-07-29T05:38:26;17.00;99.90
13896;DHT22;7018;50.838;4.226;2022-07-29T05:40:55;17.00;99.90
13896;DHT22;7018;50.838;4.226;2022-07-29T05:43:23;17.00;99.90
13896;DHT22;7018;50.838;4.226;2022-07-29T05:45:50;17.00;99.90
13896;DHT22;7018;50.838;4.226;2022-07-29T05:48:18;17.00;99.90
13896;DHT22;7018;50.838;4.226;2022-07-29T05:50:45;17.10;99.90
13896;DHT22;7018;50.838;4.226;2022-07-29T05:53:12;17.10;99.90
13896;DHT22;7018;50.838;4.226;2022-07-29T05:55:39;17.10;99.90
13896;DHT22;7018;50.838;4.226;2022-07-29T05:58:07;17.30;99.90
13896;DHT22;7018;50.838;4.226;2022-07-29T06:00:34;17.30;99.90
13896;DHT22;7018;50.838;4.226;2022-07-29T06:03:01;17.20;99.90
13896;DHT22;7018;50.838;4.226;2022-07-29T06:05:29;17.20;99.90
13896;DHT22;7018;50.838;4.226;2022-07-29T06:07:56;17.10;99.90
13896;DHT22;7018;50.838;4.226;2022-07-29T06:10:24;17.10;99.90
13896;DHT22;7018;50.838;4.226;2022-07-29T06:12:52;17.10;99.90
13896;DHT22;7018;50.838;4.226;2022-07-29T06:15:20;17.30;99.90
13896;DHT22;7018;50.838;4.226;2022-07-29T06:17:47;17.40;99.90
13896;DHT22;7018;50.838;4.226;2022-07-29T06:20:18;17.40;99.90
13896;DHT22;7018;50.838;4.226;2022-07-29T06:22:46;17.50;99.90
13896;DHT22;7018;50.838;4.226;2022-07-29T06:25:13;17.40;99.90
13896;DHT22;7018;50.838;4.226;2022-07-29T06:27:40;17.30;99.90
13896;DHT22;7018;50.838;4.226;2022-07-29T06:30:07;17.30;99.90
13896;DHT22;7018;50.838;4.226;2022-07-29T06:32:35;17.40;99.90
13896;DHT22;7018;50.838;4.226;2022-07-29T06:35:05;17.60;99.90
13896;DHT22;7018;50.838;4.226;2022-07-29T06:37:50;17.70;99.90
13896;DHT22;7018;50.838;4.226;2022-07-29T06:40:18;17.90;99.90
13896;DHT22;7018;50.838;4.226;2022-07-29T06:43:04;17.90;99.90
13896;DHT22;7018;50.838;4.226;2022-07-29T06:45:34;18.00;99.90
13896;DHT22;7018;50.838;4.226;2022-07-29T06:48:02;18.20;99.90
13896;DHT22;7018;50.838;4.226;2022-07-29T06:50:29;18.40;99.90
13896;DHT22;7018;50.838;4.226;2022-07-29T06:52:57;18.50;99.90
13896;DHT22;7018;50.838;4.226;2022-07-29T06:55:25;18.60;99.90
13896;DHT22;7018;50.838;4.226;2022-07-29T06:57:52;18.80;99.90
13896;DHT22;7018;50.838;4.226;2022-07-29T07:00:19;18.90;99.90
13896;DHT22;7018;50.838;4.226;2022-07-29T07:02:46;19.00;99.90
13896;DHT22;7018;50.838;4.226;2022-07-29T07:05:14;19.10;99.90
13896;DHT22;7018;50.838;4.226;2022-07-29T07:07:41;19.20;99.90
13896;DHT22;7018;50.838;4.226;2022-07-29T07:10:09;19.20;99.90
13896;DHT22;7018;50.838;4.226;2022-07-29T07:12:37;19.20;99.90
13896;DHT22;7018;50.838;4.226;2022-07-29T07:15:05;19.20;99.90
13896;DHT22;7018;50.838;4.226;2022-07-29T07:17:32;18.90;99.90
13896;DHT22;7018;50.838;4.226;2022-07-29T07:19:59;18.90;99.90
13896;DHT22;7018;50.838;4.226;2022-07-29T07:22:26;19.00;99.90
13896;DHT22;7018;50.838;4.226;2022-07-29T07:24:53;19.10;99.90
13896;DHT22;7018;50.838;4.226;2022-07-29T07:27:19;19.10;99.90
13896;DHT22;7018;50.838;4.226;2022-07-29T07:29:46;18.90;99.90
13896;DHT22;7018;50.838;4.226;2022-07-29T07:32:13;18.90;99.90
13896;DHT22;7018;50.838;4.226;2022-07-29T07:34:43;19.20;99.90
13896;DHT22;7018;50.838;4.226;2022-07-29T07:37:10;19.20;99.90
13896;DHT22;7018;50.838;4.226;2022-07-29T07:39:37;19.30;99.90
13896;DHT22;7018;50.838;4.226;2022-07-29T07:42:04;19.40;99.90
13896;DHT22;7018;50.838;4.226;2022-07-29T07:44:31;19.60;99.90
13896;DHT22;7018;50.838;4.226;2022-07-29T07:46:58;19.80;99.90
13896;DHT22;7018;50.838;4.226;2022-07-29T07:49:25;19.90;99.90
13896;DHT22;7018;50.838;4.226;2022-07-29T07:51:52;19.90;99.90
13896;DHT22;7018;50.838;4.226;2022-07-29T07:54:19;19.90;99.90
13896;DHT22;7018;50.838;4.226;2022-07-29T07:56:46;19.90;99.90
13896;DHT22;7018;50.838;4.226;2022-07-29T07:59:15;19.90;99.90
13896;DHT22;7018;50.838;4.226;2022-07-29T08:01:42;19.90;99.90
13896;DHT22;7018;50.838;4.226;2022-07-29T08:04:09;20.00;99.90
13896;DHT22;7018;50.838;4.226;2022-07-29T08:06:36;20.00;99.90
13896;DHT22;7018;50.838;4.226;2022-07-29T08:09:04;19.90;99.90
13896;DHT22;7018;50.838;4.226;2022-07-29T08:11:45;20.00;99.90
13896;DHT22;7018;50.838;4.226;2022-07-29T08:14:12;20.10;99.90
13896;DHT22;7018;50.838;4.226;2022-07-29T08:16:40;20.00;99.90
13896;DHT22;7018;50.838;4.226;2022-07-29T08:19:09;20.10;99.90
13896;DHT22;7018;50.838;4.226;2022-07-29T08:21:36;20.10;99.90
13896;DHT22;7018;50.838;4.226;2022-07-29T08:24:03;20.20;99.90
13896;DHT22;7018;50.838;4.226;2022-07-29T08:26:48;20.30;99.90
13896;DHT22;7018;50.838;4.226;2022-07-29T08:29:15;20.30;99.90
13896;DHT22;7018;50.838;4.226;2022-07-29T08:31:45;20.30;99.90
13896;DHT22;7018;50.838;4.226;2022-07-29T08:34:12;20.40;99.90
13896;DHT22;7018;50.838;4.226;2022-07-29T08:36:39;20.60;99.90
13896;DHT22;7018;50.838;4.226;2022-07-29T08:39:06;20.70;99.90
13896;DHT22;7018;50.838;4.226;2022-07-29T08:41:33;20.80;99.90
13896;DHT22;7018;50.838;4.226;2022-07-29T08:44:00;20.90;99.90
13896;DHT22;7018;50.838;4.226;2022-07-29T08:46:27;20.90;99.90
13896;DHT22;7018;50.838;4.226;2022-07-29T08:48:55;21.10;99.90
13896;DHT22;7018;50.838;4.226;2022-07-29T08:51:22;21.10;99.90
13896;DHT22;7018;50.838;4.226;2022-07-29T08:53:50;21.20;99.90
13896;DHT22;7018;50.838;4.226;2022-07-29T08:56:18;21.30;99.90
13896;DHT22;7018;50.838;4.226;2022-07-29T08:58:46;21.50;99.90
13896;DHT22;7018;50.838;4.226;2022-07-29T09:01:16;21.50;99.90
13896;DHT22;7018;50.838;4.226;2022-07-29T09:03:45;21.50;99.90
13896;DHT22;7018;50.838;4.226;2022-07-29T09:06:13;21.50;99.90
13896;DHT22;7018;50.838;4.226;2022-07-29T09:08:40;21.60;99.90
13896;DHT22;7018;50.838;4.226;2022-07-29T09:11:08;21.70;99.90
13896;DHT22;7018;50.838;4.226;2022-07-29T09:13:35;21.80;99.90
13896;DHT22;7018;50.838;4.226;2022-07-29T09:16:02;22.00;99.90
13896;DHT22;7018;50.838;4.226;2022-07-29T09:18:33;22.10;99.90
13896;DHT22;7018;50.838;4.226;2022-07-29T09:21:01;22.20;99.90
13896;DHT22;7018;50.838;4.226;2022-07-29T09:24:06;22.10;99.90
13896;DHT22;7018;50.838;4.226;2022-07-29T09:26:35;22.30;99.90
13896;DHT22;7018;50.838;4.226;2022-07-29T09:29:10;22.50;99.90
13896;DHT22;7018;50.838;4.226;2022-07-29T09:31:39;22.60;99.90
13896;DHT22;7018;50.838;4.226;2022-07-29T09:34:07;22.70;99.90
13896;DHT22;7018;50.838;4.226;2022-07-29T09:36:41;22.60;99.90
13896;DHT22;7018;50.838;4.226;2022-07-29T09:39:09;22.60;99.90
13896;DHT22;7018;50.838;4.226;2022-07-29T09:41:49;22.60;99.90
13896;DHT22;7018;50.838;4.226;2022-07-29T09:44:16;22.60;99.90
13896;DHT22;7018;50.838;4.226;2022-07-29T09:46:56;22.60;99.90
13896;DHT22;7018;50.838;4.226;2022-07-29T09:49:24;22.60;99.90
13896;DHT22;7018;50.838;4.226;2022-07-29T09:52:08;22.70;99.90
13896;DHT22;7018;50.838;4.226;2022-07-29T09:54:35;22.80;99.90
13896;DHT22;7018;50.838;4.226;2022-07-29T09:57:07;22.90;99.90
13896;DHT22;7018;50.838;4.226;2022-07-29T09:59:36;22.80;99.90
13896;DHT22;7018;50.838;4.226;2022-07-29T10:02:12;22.80;99.90
13896;DHT22;7018;50.838;4.226;2022-07-29T10:04:42;22.80;99.90
13896;DHT22;7018;50.838;4.226;2022-07-29T10:07:09;23.00;99.90
13896;DHT22;7018;50.838;4.226;2022-07-29T10:09:36;23.10;99.90
13896;DHT22;7018;50.838;4.226;2022-07-29T10:12:04;23.30;99.90
13896;DHT22;7018;50.838;4.226;2022-07-29T10:14:59;23.40;99.90
13896;DHT22;7018;50.838;4.226;2022-07-29T10:17:28;23.50;99.90
13896;DHT22;7018;50.838;4.226;2022-07-29T10:19:55;23.50;99.90
13896;DHT22;7018;50.838;4.226;2022-07-29T10:22:22;23.50;99.90
13896;DHT22;7018;50.838;4.226;2022-07-29T10:25:09;23.60;99.90
13896;DHT22;7018;50.838;4.226;2022-07-29T10:27:36;23.50;99.90
13896;DHT22;7018;50.838;4.226;2022-07-29T10:30:04;23.70;99.90
13896;DHT22;7018;50.838;4.226;2022-07-29T10:37:42;23.70;99.90
13896;DHT22;7018;50.838;4.226;2022-07-29T10:43:18;23.60;99.90
13896;DHT22;7018;50.838;4.226;2022-07-29T10:45:47;23.80;99.90
13896;DHT22;7018;50.838;4.226;2022-07-29T10:48:15;24.00;99.90
13896;DHT22;7018;50.838;4.226;2022-07-29T10:51:04;24.00;99.90
13896;DHT22;7018;50.838;4.226;2022-07-29T10:53:47;23.90;99.90
13896;DHT22;7018;50.838;4.226;2022-07-29T10:59:38;24.20;99.90
13896;DHT22;7018;50.838;4.226;2022-07-29T11:01:40;24.10;99.90
13896;DHT22;7018;50.838;4.226;2022-07-29T11:04:07;24.20;99.90
13896;DHT22;7018;50.838;4.226;2022-07-29T11:09:20;24.20;99.90
13896;DHT22;7018;50.838;4.226;2022-07-29T11:11:49;24.20;99.90
13896;DHT22;7018;50.838;4.226;2022-07-29T11:14:16;24.10;99.90
13896;DHT22;7018;50.838;4.226;2022-07-29T11:17:04;24.10;99.90
13896;DHT22;7018;50.838;4.226;2022-07-29T11:19:32;24.20;99.90
13896;DHT22;7018;50.838;4.226;2022-07-29T11:21:59;24.30;99.90
13896;DHT22;7018;50.838;4.226;2022-07-29T11:24:29;24.30;99.90
13896;DHT22;7018;50.838;4.226;2022-07-29T11:27:08;24.30;99.90
13896;DHT22;7018;50.838;4.226;2022-07-29T11:29:52;24.30;99.90
13896;DHT22;7018;50.838;4.226;2022-07-29T11:32:20;24.30;99.90
13896;DHT22;7018;50.838;4.226;2022-07-29T11:34:48;24.30;99.90
13896;DHT22;7018;50.838;4.226;2022-07-29T11:37:16;24.20;99.90
13896;DHT22;7018;50.838;4.226;2022-07-29T11:39:46;24.20;99.90
13896;DHT22;7018;50.838;4.226;2022-07-29T11:44:57;24.60;99.90
13896;DHT22;7018;50.838;4.226;2022-07-29T11:47:25;24.90;99.90
13896;DHT22;7018;50.838;4.226;2022-07-29T11:49:52;25.10;99.90
13896;DHT22;7018;50.838;4.226;2022-07-29T11:52:20;25.30;99.90
13896;DHT22;7018;50.838;4.226;2022-07-29T11:54:47;25.30;99.90
13896;DHT22;7018;50.838;4.226;2022-07-29T11:57:18;25.40;99.90
13896;DHT22;7018;50.838;4.226;2022-07-29T11:59:47;25.60;99.90
13896;DHT22;7018;50.838;4.226;2022-07-29T12:02:14;25.80;99.90
13896;DHT22;7018;50.838;4.226;2022-07-29T12:05:02;25.90;99.90
13896;DHT22;7018;50.838;4.226;2022-07-29T12:07:29;26.10;99.90
13896;DHT22;7018;50.838;4.226;2022-07-29T12:09:57;26.20;99.90
13896;DHT22;7018;50.838;4.226;2022-07-29T12:12:25;26.20;99.90
13896;DHT22;7018;50.838;4.226;2022-07-29T12:14:52;26.20;99.90
13896;DHT22;7018;50.838;4.226;2022-07-29T12:17:28;26.10;99.90
13896;DHT22;7018;50.838;4.226;2022-07-29T12:19:56;26.20;99.90
13896;DHT22;7018;50.838;4.226;2022-07-29T12:22:27;26.10;99.90
13896;DHT22;7018;50.838;4.226;2022-07-29T12:24:54;25.90;99.90
13896;DHT22;7018;50.838;4.226;2022-07-29T12:27:24;25.80;99.90
13896;DHT22;7018;50.838;4.226;2022-07-29T12:30:00;25.80;99.90
13896;DHT22;7018;50.838;4.226;2022-07-29T12:32:31;25.90;99.90
13896;DHT22;7018;50.838;4.226;2022-07-29T12:34:59;25.80;99.90
13896;DHT22;7018;50.838;4.226;2022-07-29T12:37:26;25.80;99.90
13896;DHT22;7018;50.838;4.226;2022-07-29T12:39:53;26.00;99.90
13896;DHT22;7018;50.838;4.226;2022-07-29T12:42:20;26.20;99.90
13896;DHT22;7018;50.838;4.226;2022-07-29T12:44:47;26.40;99.90
13896;DHT22;7018;50.838;4.226;2022-07-29T12:47:15;26.50;99.90
13896;DHT22;7018;50.838;4.226;2022-07-29T12:49:45;26.40;99.90
13896;DHT22;7018;50.838;4.226;2022-07-29T12:54:52;26.50;99.90
13896;DHT22;7018;50.838;4.226;2022-07-29T12:57:20;26.50;99.90
13896;DHT22;7018;50.838;4.226;2022-07-29T13:00:04;26.40;99.90
13896;DHT22;7018;50.838;4.226;2022-07-29T13:02:31;26.40;99.90
13896;DHT22;7018;50.838;4.226;2022-07-29T13:04:59;26.30;99.90
13896;DHT22;7018;50.838;4.226;2022-07-29T13:07:28;26.10;99.90
13896;DHT22;7018;50.838;4.226;2022-07-29T13:12:38;26.20;99.90
13896;DHT22;7018;50.838;4.226;2022-07-29T13:15:12;26.30;99.90
13896;DHT22;7018;50.838;4.226;2022-07-29T13:17:42;26.30;99.90
13896;DHT22;7018;50.838;4.226;2022-07-29T13:20:10;26.40;99.90
13896;DHT22;7018;50.838;4.226;2022-07-29T13:22:41;26.60;99.90
13896;DHT22;7018;50.838;4.226;2022-07-29T13:25:09;26.70;99.90
13896;DHT22;7018;50.838;4.226;2022-07-29T13:27:37;26.90;99.90
13896;DHT22;7018;50.838;4.226;2022-07-29T13:30:08;26.90;99.90
13896;DHT22;7018;50.838;4.226;2022-07-29T13:32:36;26.90;99.90
13896;DHT22;7018;50.838;4.226;2022-07-29T13:35:05;26.90;99.90
13896;DHT22;7018;50.838;4.226;2022-07-29T13:37:33;27.00;99.90
13896;DHT22;7018;50.838;4.226;2022-07-29T13:40:02;27.10;99.90
13896;DHT22;7018;50.838;4.226;2022-07-29T13:42:29;26.90;99.90
13896;DHT22;7018;50.838;4.226;2022-07-29T13:44:57;26.90;99.90
13896;DHT22;7018;50.838;4.226;2022-07-29T13:47:25;26.70;99.90
13896;DHT22;7018;50.838;4.226;2022-07-29T13:49:52;26.80;99.90
13896;DHT22;7018;50.838;4.226;2022-07-29T13:52:19;26.70;99.90
13896;DHT22;7018;50.838;4.226;2022-07-29T13:54:47;26.90;99.90
13896;DHT22;7018;50.838;4.226;2022-07-29T13:57:14;27.10;99.90
13896;DHT22;7018;50.838;4.226;2022-07-29T13:59:42;27.20;99.90
13896;DHT22;7018;50.838;4.226;2022-07-29T14:02:10;27.10;99.90
13896;DHT22;7018;50.838;4.226;2022-07-29T14:04:37;27.20;99.90
13896;DHT22;7018;50.838;4.226;2022-07-29T14:07:04;27.20;99.90
13896;DHT22;7018;50.838;4.226;2022-07-29T14:09:34;27.00;99.90
13896;DHT22;7018;50.838;4.226;2022-07-29T14:12:03;27.00;99.90
13896;DHT22;7018;50.838;4.226;2022-07-29T14:14:30;27.00;99.90
13896;DHT22;7018;50.838;4.226;2022-07-29T14:16:58;26.80;99.90
13896;DHT22;7018;50.838;4.226;2022-07-29T14:19:26;26.50;99.90
13896;DHT22;7018;50.838;4.226;2022-07-29T14:21:53;26.10;99.90
13896;DHT22;7018;50.838;4.226;2022-07-29T14:24:21;26.10;99.90
13896;DHT22;7018;50.838;4.226;2022-07-29T14:26:48;26.10;99.90
13896;DHT22;7018;50.838;4.226;2022-07-29T14:29:15;26.20;99.90
13896;DHT22;7018;50.838;4.226;2022-07-29T14:31:42;26.40;99.90
13896;DHT22;7018;50.838;4.226;2022-07-29T14:34:10;26.60;99.90
13896;DHT22;7018;50.838;4.226;2022-07-29T14:36:37;26.60;99.90
13896;DHT22;7018;50.838;4.226;2022-07-29T14:39:04;26.70;99.90
13896;DHT22;7018;50.838;4.226;2022-07-29T14:41:31;26.90;99.90
13896;DHT22;7018;50.838;4.226;2022-07-29T14:43:59;27.10;99.90
13896;DHT22;7018;50.838;4.226;2022-07-29T14:46:29;27.20;99.90
13896;DHT22;7018;50.838;4.226;2022-07-29T14:48:56;27.20;99.90
13896;DHT22;7018;50.838;4.226;2022-07-29T14:51:22;27.40;99.90
13896;DHT22;7018;50.838;4.226;2022-07-29T14:53:50;27.60;99.90
13896;DHT22;7018;50.838;4.226;2022-07-29T14:56:17;27.90;99.90
13896;DHT22;7018;50.838;4.226;2022-07-29T14:59:00;28.10;99.90
13896;DHT22;7018;50.838;4.226;2022-07-29T15:01:27;28.40;99.40
13896;DHT22;7018;50.838;4.226;2022-07-29T15:03:54;28.40;99.00
13896;DHT22;7018;50.838;4.226;2022-07-29T15:06:25;28.20;99.60
13896;DHT22;7018;50.838;4.226;2022-07-29T15:08:51;27.90;99.90
13896;DHT22;7018;50.838;4.226;2022-07-29T15:11:18;27.50;99.90
13896;DHT22;7018;50.838;4.226;2022-07-29T15:13:45;27.50;99.90
13896;DHT22;7018;50.838;4.226;2022-07-29T15:16:13;27.40;99.90
13896;DHT22;7018;50.838;4.226;2022-07-29T15:18:40;27.20;99.90
13896;DHT22;7018;50.838;4.226;2022-07-29T15:21:07;26.80;99.90
13896;DHT22;7018;50.838;4.226;2022-07-29T15:23:34;26.70;99.90
13896;DHT22;7018;50.838;4.226;2022-07-29T15:26:05;26.60;99.90
13896;DHT22;7018;50.838;4.226;2022-07-29T15:28:32;26.50;99.90
13896;DHT22;7018;50.838;4.226;2022-07-29T15:30:59;26.40;99.90
13896;DHT22;7018;50.838;4.226;2022-07-29T15:33:27;26.20;99.90
13896;DHT22;7018;50.838;4.226;2022-07-29T15:35:55;26.30;99.90
13896;DHT22;7018;50.838;4.226;2022-07-29T15:38:22;26.40;99.90
13896;DHT22;7018;50.838;4.226;2022-07-29T15:40:49;26.40;99.90
13896;DHT22;7018;50.838;4.226;2022-07-29T15:43:17;26.60;99.90
13896;DHT22;7018;50.838;4.226;2022-07-29T15:45:44;26.70;99.90
13896;DHT22;7018;50.838;4.226;2022-07-29T15:48:31;26.70;99.90
13896;DHT22;7018;50.838;4.226;2022-07-29T15:50:58;26.70;99.90
13896;DHT22;7018;50.838;4.226;2022-07-29T15:53:25;26.80;99.90
13896;DHT22;7018;50.838;4.226;2022-07-29T15:55:52;26.80;99.90
13896;DHT22;7018;50.838;4.226;2022-07-29T15:58:20;26.90;99.90
13896;DHT22;7018;50.838;4.226;2022-07-29T16:00:47;26.90;99.90
13896;DHT22;7018;50.838;4.226;2022-07-29T16:03:14;27.00;99.90
13896;DHT22;7018;50.838;4.226;2022-07-29T16:05:41;27.20;99.90
13896;DHT22;7018;50.838;4.226;2022-07-29T16:08:09;27.30;99.90
13896;DHT22;7018;50.838;4.226;2022-07-29T16:10:36;27.50;99.90
13896;DHT22;7018;50.838;4.226;2022-07-29T16:13:04;27.50;99.90
13896;DHT22;7018;50.838;4.226;2022-07-29T16:15:31;27.70;99.90
13896;DHT22;7018;50.838;4.226;2022-07-29T16:17:58;27.90;99.90
13896;DHT22;7018;50.838;4.226;2022-07-29T16:20:26;28.10;99.90
13896;DHT22;7018;50.838;4.226;2022-07-29T16:22:54;28.20;99.90
13896;DHT22;7018;50.838;4.226;2022-07-29T16:25:21;28.30;99.90
13896;DHT22;7018;50.838;4.226;2022-07-29T16:27:55;28.30;99.40
13896;DHT22;7018;50.838;4.226;2022-07-29T16:30:25;28.40;99.80